createdAt,value
2019-04-16T00:00:00.901Z,5.80
2019-04-16T00:02:28.653Z,5.69
2019-04-16T00:04:58.247Z,5.65
2019-04-16T00:07:17.052Z,5.65
2019-04-16T00:09:32.571Z,5.59
2019-04-16T00:11:54.344Z,5.50
2019-04-16T00:14:07.275Z,5.47
2019-04-16T00:16:18.154Z,5.48
2019-04-16T00:18:29.024Z,5.46
2019-04-16T00:20:47.621Z,5.51
2019-04-16T00:23:12.477Z,5.52
2019-04-16T00:25:23.350Z,5.47
2019-04-16T00:27:34.213Z,5.36
2019-04-16T00:29:45.054Z,5.24
2019-04-16T00:31:57.349Z,5.23
2019-04-16T00:34:08.593Z,5.26
2019-04-16T00:36:19.465Z,5.25
2019-04-16T00:38:40.626Z,5.21
2019-04-16T00:40:43.045Z,5.13
2019-04-16T00:42:53.938Z,5.08
2019-04-16T00:45:06.197Z,4.96
2019-04-16T00:47:17.087Z,4.91
2019-04-16T00:49:27.924Z,4.88
2019-04-16T00:51:38.857Z,4.93
2019-04-16T00:53:49.718Z,4.92
2019-04-16T00:56:00.693Z,4.92
2019-04-16T00:58:11.762Z,4.92
2019-04-16T01:00:22.586Z,4.79
2019-04-16T01:02:33.543Z,4.70
2019-04-16T01:04:44.509Z,4.63
2019-04-16T01:06:55.445Z,4.71
2019-04-16T01:09:06.411Z,4.65
2019-04-16T01:11:17.342Z,4.63
2019-04-16T01:13:28.194Z,4.62
2019-04-16T01:15:39.038Z,4.63
2019-04-16T01:17:50.006Z,4.56
2019-04-16T01:20:00.988Z,4.54
2019-04-16T01:22:15.700Z,4.54
2019-04-16T01:24:24.599Z,4.54
2019-04-16T01:26:35.429Z,4.61
2019-04-16T01:28:48.211Z,4.62
2019-04-16T01:31:10.063Z,4.63
2019-04-16T01:33:40.657Z,4.58
2019-04-16T01:35:59.712Z,4.51
2019-04-16T01:38:27.688Z,4.44
2019-04-16T01:40:41.838Z,4.43
2019-04-16T01:42:54.591Z,4.48
2019-04-16T01:45:06.143Z,4.49
2019-04-16T01:47:17.023Z,4.41
2019-04-16T01:49:27.882Z,4.40
2019-04-16T01:51:38.732Z,4.43
2019-04-16T01:53:52.274Z,4.47
2019-04-16T01:56:02.619Z,4.52
2019-04-16T01:58:13.521Z,4.50
2019-04-16T02:00:24.493Z,4.45
2019-04-16T02:02:35.339Z,4.45
2019-04-16T02:04:48.521Z,4.47
2019-04-16T02:06:59.270Z,4.47
2019-04-16T02:09:21.955Z,4.43
2019-04-16T02:11:23.036Z,4.31
2019-04-16T02:13:33.868Z,4.30
2019-04-16T02:15:44.846Z,4.24
2019-04-16T02:17:58.793Z,4.10
2019-04-16T02:20:08.648Z,4.01
2019-04-16T02:22:19.494Z,3.99
2019-04-16T02:24:30.375Z,3.95
2019-04-16T02:26:41.322Z,3.94
2019-04-16T02:28:52.176Z,3.99
2019-04-16T02:31:03.130Z,3.99
2019-04-16T02:33:13.970Z,4.03
2019-04-16T02:35:24.946Z,4.07
2019-04-16T02:37:37.341Z,4.16
2019-04-16T02:39:49.415Z,4.22
2019-04-16T02:42:00.895Z,4.26
2019-04-16T02:44:16.572Z,4.31
2019-04-16T02:46:30.868Z,4.30
2019-04-16T02:48:37.449Z,4.24
2019-04-16T02:50:52.937Z,4.11
2019-04-16T02:53:24.512Z,3.98
2019-04-16T02:55:48.804Z,3.91
2019-04-16T02:58:04.509Z,3.87
2019-04-16T03:00:18.515Z,3.88
2019-04-16T03:02:31.272Z,3.88
2019-04-16T03:04:44.127Z,3.83
2019-04-16T03:06:55.091Z,3.76
2019-04-16T03:09:09.182Z,3.71
2019-04-16T03:11:18.677Z,3.72
2019-04-16T03:13:29.628Z,3.78
2019-04-16T03:15:51.213Z,3.75
2019-04-16T03:18:02.301Z,3.73
2019-04-16T03:20:15.825Z,3.66
2019-04-16T03:22:26.664Z,3.60
2019-04-16T03:24:40.088Z,3.61
2019-04-16T03:26:51.266Z,3.60
2019-04-16T03:29:02.205Z,3.56
2019-04-16T03:31:19.350Z,3.56
2019-04-16T03:33:25.804Z,3.53
2019-04-16T03:35:36.745Z,3.57
2019-04-16T03:37:47.600Z,3.57
2019-04-16T03:39:59.054Z,3.48
2019-04-16T03:42:09.916Z,3.52
2019-04-16T03:44:20.962Z,3.45
2019-04-16T03:46:31.954Z,3.36
2019-04-16T03:48:43.009Z,3.39
2019-04-16T03:50:53.838Z,3.33
2019-04-16T03:53:04.703Z,3.24
2019-04-16T03:55:15.575Z,3.24
2019-04-16T03:57:26.531Z,3.29
2019-04-16T03:59:40.083Z,3.28
2019-04-16T04:01:50.149Z,3.32
2019-04-16T04:04:01.091Z,3.28
2019-04-16T04:06:11.951Z,3.30
2019-04-16T04:08:23.229Z,3.31
2019-04-16T04:10:36.871Z,3.22
2019-04-16T04:12:46.873Z,3.28
2019-04-16T04:14:57.727Z,3.35
2019-04-16T04:17:08.800Z,3.41
2019-04-16T04:19:19.648Z,3.49
2019-04-16T04:21:30.522Z,3.48
2019-04-16T04:23:41.476Z,3.56
2019-04-16T04:25:52.308Z,3.68
2019-04-16T04:28:03.319Z,3.78
2019-04-16T04:30:15.455Z,3.84
2019-04-16T04:32:26.318Z,3.75
2019-04-16T04:34:37.171Z,3.64
2019-04-16T04:36:48.002Z,3.49
2019-04-16T04:38:58.868Z,3.38
2019-04-16T04:41:09.817Z,3.27
2019-04-16T04:43:20.673Z,3.28
2019-04-16T04:45:31.534Z,3.33
2019-04-16T04:47:42.395Z,3.28
2019-04-16T04:49:53.225Z,3.30
2019-04-16T04:52:04.157Z,3.36
2019-04-16T04:54:15.016Z,3.49
2019-04-16T04:56:27.956Z,3.64
2019-04-16T04:58:38.901Z,3.83
2019-04-16T05:00:49.839Z,3.99
2019-04-16T05:03:00.694Z,4.13
2019-04-16T05:05:16.166Z,4.23
2019-04-16T05:07:29.046Z,4.29
2019-04-16T05:09:39.758Z,4.46
2019-04-16T05:11:50.610Z,4.70
2019-04-16T05:14:01.515Z,4.87
2019-04-16T05:16:12.394Z,4.98
2019-04-16T05:18:23.276Z,5.23
2019-04-16T05:20:34.105Z,5.23
2019-04-16T05:22:45.041Z,5.42
2019-04-16T05:25:00.832Z,5.54
2019-04-16T05:27:09.449Z,5.84
2019-04-16T05:29:20.414Z,6.07
2019-04-16T05:31:31.358Z,6.27
2019-04-16T05:33:42.217Z,6.39
2019-04-16T05:35:53.074Z,6.45
2019-04-16T05:38:04.011Z,6.58
2019-04-16T05:40:14.990Z,6.89
2019-04-16T05:42:26.370Z,7.12
2019-04-16T05:44:37.393Z,7.37
2019-04-16T05:46:48.234Z,7.61
2019-04-16T05:48:59.172Z,7.80
2019-04-16T05:51:10.054Z,8.06
2019-04-16T05:53:20.904Z,8.24
2019-04-16T05:55:36.774Z,8.55
2019-04-16T05:57:57.974Z,9.03
2019-04-16T06:00:11.336Z,9.37
2019-04-16T06:02:24.095Z,9.65
2019-04-16T06:04:34.994Z,9.93
2019-04-16T06:06:45.831Z,10.36
2019-04-16T06:08:56.782Z,10.69
2019-04-16T06:11:07.745Z,11.09
2019-04-16T06:13:20.499Z,11.43
2019-04-16T06:15:35.811Z,11.74
2019-04-16T06:17:50.683Z,12.08
2019-04-16T06:20:09.741Z,12.47
2019-04-16T06:22:25.436Z,12.68
2019-04-16T06:24:40.048Z,13.04
2019-04-16T06:27:10.176Z,13.48
2019-04-16T06:29:29.013Z,13.97
2019-04-16T06:31:40.874Z,14.37
2019-04-16T06:34:02.731Z,14.89
2019-04-16T06:36:24.353Z,15.24
2019-04-16T06:38:44.886Z,15.38
2019-04-16T06:41:09.656Z,15.45
2019-04-16T06:43:25.119Z,15.74
2019-04-16T06:45:39.915Z,16.10
2019-04-16T06:47:52.691Z,16.35
2019-04-16T06:50:31.179Z,16.69
2019-04-16T06:52:38.523Z,16.98
2019-04-16T06:54:54.097Z,17.30
2019-04-16T06:57:09.660Z,17.52
2019-04-16T06:59:21.774Z,17.66
2019-04-16T07:01:36.968Z,17.68
2019-04-16T07:03:59.779Z,17.91
2019-04-16T07:06:21.879Z,17.89
2019-04-16T07:08:51.574Z,17.82
2019-04-16T07:11:03.427Z,17.95
2019-04-16T07:13:14.391Z,18.03
2019-04-16T07:15:28.250Z,18.08
2019-04-16T07:17:40.490Z,18.28
2019-04-16T07:19:51.023Z,18.19
2019-04-16T07:22:01.977Z,18.08
2019-04-16T07:24:12.922Z,17.87
2019-04-16T07:26:23.974Z,17.88
2019-04-16T07:28:58.527Z,17.82
2019-04-16T07:31:14.872Z,17.85
2019-04-16T07:33:43.033Z,17.76
2019-04-16T07:35:55.969Z,17.65
2019-04-16T07:38:11.418Z,17.57
2019-04-16T07:40:40.930Z,17.23
2019-04-16T07:42:58.038Z,17.17
2019-04-16T07:45:20.877Z,17.44
2019-04-16T07:47:33.626Z,17.53
2019-04-16T07:49:52.539Z,17.67
2019-04-16T07:52:11.732Z,17.40
2019-04-16T07:54:38.294Z,17.56
2019-04-16T07:56:50.456Z,17.70
2019-04-16T07:59:01.863Z,17.67
2019-04-16T08:01:16.264Z,17.75
2019-04-16T08:03:26.881Z,17.78
2019-04-16T08:05:41.135Z,17.74
2019-04-16T08:07:52.909Z,17.72
2019-04-16T08:10:04.356Z,17.79
2019-04-16T08:12:29.462Z,17.82
2019-04-16T08:14:27.991Z,18.04
2019-04-16T08:16:47.037Z,18.13
2019-04-16T08:18:51.721Z,18.16
2019-04-16T08:21:10.228Z,18.10
2019-04-16T08:23:32.589Z,18.14
2019-04-16T08:25:43.561Z,18.29
2019-04-16T08:27:55.027Z,18.39
2019-04-16T08:30:08.280Z,18.31
2019-04-16T08:32:19.123Z,18.50
2019-04-16T08:34:30.065Z,18.71
2019-04-16T08:36:40.956Z,18.79
2019-04-16T08:38:51.823Z,18.93
2019-04-16T08:41:02.963Z,19.08
2019-04-16T08:43:13.793Z,19.01
2019-04-16T08:45:24.710Z,19.14
2019-04-16T08:47:35.677Z,19.25
2019-04-16T08:49:46.560Z,19.36
2019-04-16T08:51:57.549Z,19.67
2019-04-16T08:54:08.497Z,19.78
2019-04-16T08:56:19.379Z,20.01
2019-04-16T08:58:30.313Z,20.08
2019-04-16T09:00:46.010Z,19.98
2019-04-16T09:02:57.570Z,19.91
2019-04-16T09:05:11.264Z,20.04
2019-04-16T09:07:39.476Z,19.74
2019-04-16T09:09:56.953Z,19.72
2019-04-16T09:12:08.929Z,19.92
2019-04-16T09:14:20.797Z,20.04
2019-04-16T09:16:33.932Z,19.98
2019-04-16T09:18:52.417Z,19.94
2019-04-16T09:21:03.571Z,19.82
2019-04-16T09:23:14.448Z,19.78
2019-04-16T09:25:45.674Z,19.93
2019-04-16T09:28:00.756Z,20.00
2019-04-16T09:30:18.162Z,20.04
2019-04-16T09:32:31.007Z,20.24
2019-04-16T09:35:08.851Z,20.25
2019-04-16T09:37:35.789Z,20.40
2019-04-16T09:39:50.937Z,20.52
2019-04-16T09:42:02.230Z,20.39
2019-04-16T09:44:13.093Z,20.45
2019-04-16T09:46:49.117Z,20.07
2019-04-16T09:48:36.995Z,20.07
2019-04-16T09:50:48.103Z,20.26
2019-04-16T09:53:01.798Z,20.19
2019-04-16T09:55:12.232Z,20.20
2019-04-16T09:57:24.814Z,20.29
2019-04-16T09:59:44.718Z,20.41
2019-04-16T10:01:58.369Z,20.66
2019-04-16T10:04:14.200Z,20.76
2019-04-16T10:06:25.136Z,20.98
2019-04-16T10:08:36.023Z,21.11
2019-04-16T10:10:46.879Z,20.98
2019-04-16T10:12:57.730Z,20.88
2019-04-16T10:15:08.812Z,21.02
2019-04-16T10:17:19.691Z,21.13
2019-04-16T10:19:30.526Z,21.21
2019-04-16T10:21:41.459Z,21.39
2019-04-16T10:24:06.349Z,21.38
2019-04-16T10:26:17.336Z,21.50
2019-04-16T10:28:30.124Z,21.54
2019-04-16T10:30:45.657Z,21.67
2019-04-16T10:32:56.470Z,21.57
2019-04-16T10:35:07.415Z,21.41
2019-04-16T10:37:18.271Z,21.31
2019-04-16T10:39:33.791Z,21.33
2019-04-16T10:42:01.614Z,21.35
2019-04-16T10:44:17.352Z,21.44
2019-04-16T10:46:36.202Z,21.48
2019-04-16T10:48:51.665Z,21.60
2019-04-16T10:51:07.293Z,21.84
2019-04-16T10:53:20.088Z,21.81
2019-04-16T10:55:49.480Z,21.70
2019-04-16T10:58:14.197Z,21.72
2019-04-16T11:00:27.030Z,21.90
2019-04-16T11:02:48.809Z,21.94
2019-04-16T11:05:04.456Z,21.91
2019-04-16T11:07:23.846Z,21.81
2019-04-16T11:09:34.830Z,21.92
2019-04-16T11:11:46.149Z,22.01
2019-04-16T11:14:00.041Z,22.12
2019-04-16T11:16:11.887Z,22.21
2019-04-16T11:18:22.687Z,22.19
2019-04-16T11:20:33.669Z,22.30
2019-04-16T11:22:44.534Z,22.29
2019-04-16T11:24:55.496Z,22.39
2019-04-16T11:27:06.442Z,22.19
2019-04-16T11:29:17.316Z,22.06
2019-04-16T11:31:28.477Z,22.13
2019-04-16T11:33:39.333Z,22.13
2019-04-16T11:35:53.193Z,22.03
2019-04-16T11:38:03.203Z,21.87
2019-04-16T11:40:14.697Z,21.80
2019-04-16T11:42:25.580Z,21.83
2019-04-16T11:44:36.560Z,21.85
2019-04-16T11:46:47.622Z,21.68
2019-04-16T11:48:58.609Z,21.67
2019-04-16T11:51:09.568Z,21.60
2019-04-16T11:53:20.548Z,21.62
2019-04-16T11:55:31.619Z,21.68
2019-04-16T11:57:42.496Z,21.71
2019-04-16T12:00:06.035Z,21.58
2019-04-16T12:02:20.164Z,21.56
2019-04-16T12:04:55.846Z,21.44
2019-04-16T12:07:18.194Z,21.44
2019-04-16T12:09:47.826Z,21.47
2019-04-16T12:12:03.322Z,21.18
2019-04-16T12:14:32.384Z,21.14
2019-04-16T12:16:52.026Z,21.24
2019-04-16T12:19:22.118Z,21.31
2019-04-16T12:21:51.456Z,21.17
2019-04-16T12:24:20.957Z,21.17
2019-04-16T12:26:36.416Z,21.08
2019-04-16T12:28:55.224Z,21.13
2019-04-16T12:31:07.957Z,21.08
2019-04-16T12:33:20.745Z,20.93
2019-04-16T12:35:45.745Z,21.00
2019-04-16T12:38:13.105Z,21.15
2019-04-16T12:40:25.668Z,21.14
2019-04-16T12:42:44.230Z,21.16
2019-04-16T12:45:09.552Z,21.10
2019-04-16T12:47:22.772Z,21.15
2019-04-16T12:49:44.472Z,21.16
2019-04-16T12:51:57.234Z,21.19
2019-04-16T12:54:26.779Z,21.26
2019-04-16T12:56:48.358Z,21.25
2019-04-16T12:59:06.954Z,21.21
2019-04-16T13:01:25.497Z,21.19
2019-04-16T13:03:52.700Z,21.07
2019-04-16T13:06:07.949Z,21.04
2019-04-16T13:08:29.663Z,21.07
2019-04-16T13:10:48.774Z,21.06
2019-04-16T13:13:01.549Z,21.14
2019-04-16T13:15:30.792Z,21.07
2019-04-16T13:17:58.588Z,20.93
2019-04-16T13:20:29.496Z,20.87
2019-04-16T13:22:45.740Z,20.78
2019-04-16T13:25:05.023Z,20.43
2019-04-16T13:27:17.822Z,20.33
2019-04-16T13:29:30.571Z,20.30
2019-04-16T13:31:41.573Z,20.28
2019-04-16T13:33:52.538Z,20.38
2019-04-16T13:36:03.607Z,20.38
2019-04-16T13:38:16.484Z,20.42
2019-04-16T13:40:27.437Z,20.48
2019-04-16T13:42:38.283Z,20.41
2019-04-16T13:45:17.217Z,20.36
2019-04-16T13:47:18.982Z,20.33
2019-04-16T13:49:40.606Z,20.28
2019-04-16T13:51:51.527Z,20.22
2019-04-16T13:54:21.063Z,20.20
2019-04-16T13:56:36.550Z,20.11
2019-04-16T13:59:01.567Z,20.12
2019-04-16T14:01:17.057Z,20.07
2019-04-16T14:03:27.906Z,20.01
2019-04-16T14:05:42.527Z,20.02
2019-04-16T14:07:51.589Z,20.03
2019-04-16T14:10:04.575Z,20.06
2019-04-16T14:12:15.432Z,20.13
2019-04-16T14:14:26.299Z,20.23
2019-04-16T14:16:37.151Z,20.19
2019-04-16T14:18:48.086Z,20.15
2019-04-16T14:20:58.970Z,20.11
2019-04-16T14:23:09.931Z,20.08
2019-04-16T14:25:20.997Z,19.97
2019-04-16T14:27:31.891Z,19.94
2019-04-16T14:29:42.756Z,19.96
2019-04-16T14:31:53.824Z,19.79
2019-04-16T14:34:06.738Z,19.72
2019-04-16T14:36:17.699Z,19.60
2019-04-16T14:38:36.234Z,19.65
2019-04-16T14:40:47.135Z,19.70
2019-04-16T14:42:58.668Z,19.74
2019-04-16T14:45:23.895Z,19.74
2019-04-16T14:47:38.010Z,19.70
2019-04-16T14:49:47.753Z,19.70
2019-04-16T14:52:01.972Z,19.71
2019-04-16T14:54:15.218Z,19.65
2019-04-16T14:56:30.725Z,19.61
2019-04-16T14:58:49.462Z,19.53
2019-04-16T15:01:14.399Z,19.49
2019-04-16T15:03:33.314Z,19.38
2019-04-16T15:05:47.687Z,19.30
2019-04-16T15:08:17.253Z,19.24
2019-04-16T15:10:45.107Z,19.22
2019-04-16T15:12:57.905Z,19.16
2019-04-16T15:15:25.958Z,19.18
2019-04-16T15:17:41.474Z,19.12
2019-04-16T15:19:54.225Z,19.01
2019-04-16T15:22:23.540Z,19.00
2019-04-16T15:24:36.591Z,19.01
2019-04-16T15:27:06.156Z,19.00
2019-04-16T15:29:30.894Z,19.02
2019-04-16T15:31:43.766Z,18.95
2019-04-16T15:33:59.234Z,18.87
2019-04-16T15:36:24.014Z,18.86
2019-04-16T15:38:42.819Z,18.88
2019-04-16T15:41:13.208Z,18.80
2019-04-16T15:43:42.126Z,18.74
2019-04-16T15:46:09.618Z,18.74
2019-04-16T15:48:38.053Z,18.66
2019-04-16T15:50:56.638Z,18.65
2019-04-16T15:53:09.430Z,18.61
2019-04-16T15:55:31.091Z,18.66
2019-04-16T15:57:58.928Z,18.68
2019-04-16T16:00:27.311Z,18.65
2019-04-16T16:02:46.108Z,18.65
2019-04-16T16:04:58.956Z,18.65
2019-04-16T16:07:09.958Z,18.69
2019-04-16T16:09:40.900Z,18.72
2019-04-16T16:12:05.998Z,18.73
2019-04-16T16:14:16.961Z,18.72
2019-04-16T16:16:41.128Z,18.57
2019-04-16T16:18:40.788Z,18.52
2019-04-16T16:20:51.721Z,18.46
2019-04-16T16:23:02.981Z,18.42
2019-04-16T16:25:14.054Z,18.29
2019-04-16T16:27:25.123Z,18.22
2019-04-16T16:29:36.019Z,18.09
2019-04-16T16:31:46.874Z,17.99
2019-04-16T16:33:57.745Z,17.92
2019-04-16T16:36:08.580Z,17.79
2019-04-16T16:38:20.961Z,17.75
2019-04-16T16:40:32.105Z,17.77
2019-04-16T16:42:42.969Z,17.73
2019-04-16T16:44:53.844Z,17.69
2019-04-16T16:47:06.771Z,17.60
2019-04-16T16:49:17.654Z,17.54
2019-04-16T16:51:28.634Z,17.53
2019-04-16T16:53:41.648Z,17.50
2019-04-16T16:55:53.915Z,17.41
2019-04-16T16:58:24.720Z,17.39
2019-04-16T17:00:37.503Z,17.34
2019-04-16T17:02:50.294Z,17.29
2019-04-16T17:05:03.208Z,17.27
2019-04-16T17:07:17.446Z,17.23
2019-04-16T17:09:33.441Z,17.22
2019-04-16T17:11:44.390Z,17.19
2019-04-16T17:13:57.996Z,17.14
2019-04-16T17:16:13.521Z,17.15
2019-04-16T17:18:21.100Z,17.15
2019-04-16T17:20:32.055Z,17.07
2019-04-16T17:22:42.900Z,17.07
2019-04-16T17:24:53.802Z,17.07
2019-04-16T17:27:05.405Z,16.96
2019-04-16T17:29:16.251Z,16.86
2019-04-16T17:31:27.370Z,16.87
2019-04-16T17:33:38.358Z,16.85
2019-04-16T17:35:49.234Z,16.87
2019-04-16T17:38:02.802Z,16.85
2019-04-16T17:40:21.557Z,16.85
2019-04-16T17:42:37.660Z,16.86
2019-04-16T17:45:04.441Z,16.85
2019-04-16T17:47:33.840Z,16.82
2019-04-16T17:50:02.550Z,16.80
2019-04-16T17:52:13.534Z,16.83
2019-04-16T17:54:32.168Z,16.84
2019-04-16T17:57:01.643Z,16.81
2019-04-16T17:59:14.386Z,16.77
2019-04-16T18:01:30.156Z,16.69
2019-04-16T18:03:48.739Z,16.63
2019-04-16T18:06:07.690Z,16.60
2019-04-16T18:08:32.349Z,16.58
2019-04-16T18:10:50.875Z,16.43
2019-04-16T18:13:07.583Z,16.16
2019-04-16T18:15:20.509Z,15.98
2019-04-16T18:17:46.934Z,15.88
2019-04-16T18:20:09.325Z,15.89
2019-04-16T18:22:29.177Z,15.85
2019-04-16T18:24:42.068Z,15.78
2019-04-16T18:27:10.155Z,15.72
2019-04-16T18:29:22.949Z,15.67
2019-04-16T18:31:35.829Z,15.64
2019-04-16T18:33:48.646Z,15.58
2019-04-16T18:36:04.367Z,15.50
2019-04-16T18:38:19.065Z,15.47
2019-04-16T18:40:41.699Z,15.41
2019-04-16T18:43:00.581Z,15.33
2019-04-16T18:45:13.319Z,15.37
2019-04-16T18:47:44.265Z,15.39
2019-04-16T18:49:57.060Z,15.39
2019-04-16T18:52:07.980Z,15.41
2019-04-16T18:54:19.176Z,15.38
2019-04-16T18:56:30.016Z,15.30
2019-04-16T18:58:41.819Z,15.27
2019-04-16T19:00:54.875Z,15.36
2019-04-16T19:03:05.906Z,15.37
2019-04-16T19:05:16.767Z,15.37
2019-04-16T19:07:27.777Z,15.40
2019-04-16T19:09:38.636Z,15.42
2019-04-16T19:11:49.514Z,15.48
2019-04-16T19:14:00.483Z,15.52
2019-04-16T19:16:11.551Z,15.57
2019-04-16T19:18:22.527Z,15.60
2019-04-16T19:20:33.510Z,15.60
2019-04-16T19:22:46.515Z,15.50
2019-04-16T19:24:57.353Z,15.50
2019-04-16T19:27:08.429Z,15.44
2019-04-16T19:29:19.334Z,15.35
2019-04-16T19:31:30.321Z,15.30
2019-04-16T19:33:41.168Z,15.32
2019-04-16T19:35:52.293Z,15.34
2019-04-16T19:38:06.436Z,15.25
2019-04-16T19:40:18.948Z,15.11
2019-04-16T19:42:29.677Z,15.09
2019-04-16T19:44:40.730Z,15.09
2019-04-16T19:46:53.944Z,15.14
2019-04-16T19:49:04.880Z,15.13
2019-04-16T19:51:19.421Z,15.10
2019-04-16T19:53:28.968Z,15.08
2019-04-16T19:55:39.926Z,15.07
2019-04-16T19:57:51.099Z,15.08
2019-04-16T20:00:05.433Z,15.12
2019-04-16T20:02:16.624Z,15.12
2019-04-16T20:04:28.143Z,15.07
2019-04-16T20:06:39.319Z,15.07
2019-04-16T20:08:50.220Z,15.06
2019-04-16T20:11:01.199Z,15.02
2019-04-16T20:13:12.216Z,15.02
2019-04-16T20:15:23.452Z,15.02
2019-04-16T20:17:34.442Z,14.89
2019-04-16T20:19:57.640Z,14.80
2019-04-16T20:22:08.614Z,14.75
2019-04-16T20:24:19.574Z,14.67
2019-04-16T20:26:32.451Z,14.71
2019-04-16T20:28:45.365Z,14.63
2019-04-16T20:31:01.430Z,14.64
2019-04-16T20:33:09.143Z,14.60
2019-04-16T20:35:20.112Z,14.59
2019-04-16T20:37:31.093Z,14.54
2019-04-16T20:39:42.045Z,14.55
2019-04-16T20:41:55.268Z,14.54
2019-04-16T20:44:09.104Z,14.48
2019-04-16T20:46:18.416Z,14.46
2019-04-16T20:48:29.425Z,14.43
2019-04-16T20:50:40.376Z,14.36
2019-04-16T20:52:51.267Z,14.37
2019-04-16T20:55:02.839Z,14.38
2019-04-16T20:57:13.832Z,14.33
2019-04-16T20:59:24.698Z,14.31
2019-04-16T21:01:37.695Z,14.27
2019-04-16T21:04:05.027Z,14.23
2019-04-16T21:06:10.271Z,14.18
2019-04-16T21:08:24.201Z,14.14
2019-04-16T21:10:35.688Z,14.13
2019-04-16T21:12:46.974Z,14.07
2019-04-16T21:14:57.932Z,14.02
2019-04-16T21:17:08.901Z,13.98
2019-04-16T21:19:23.140Z,13.95
2019-04-16T21:21:32.530Z,13.90
2019-04-16T21:23:43.528Z,13.88
2019-04-16T21:25:54.367Z,13.86
2019-04-16T21:28:25.256Z,13.88
2019-04-16T21:30:36.514Z,13.83
2019-04-16T21:32:49.554Z,13.81
2019-04-16T21:35:08.501Z,13.81
2019-04-16T21:37:21.245Z,13.78
2019-04-16T21:39:37.000Z,13.72
2019-04-16T21:41:47.858Z,13.69
2019-04-16T21:43:58.736Z,13.61
2019-04-16T21:46:09.574Z,13.52
2019-04-16T21:48:20.472Z,13.42
2019-04-16T21:50:31.344Z,13.38
2019-04-16T21:52:42.193Z,13.30
2019-04-16T21:54:53.164Z,13.21
2019-04-16T21:57:04.335Z,13.14
2019-04-16T21:59:15.176Z,12.97
2019-04-16T22:01:28.023Z,12.80
2019-04-16T22:03:42.253Z,12.61
2019-04-16T22:05:51.647Z,12.50
2019-04-16T22:08:02.707Z,12.40
2019-04-16T22:10:13.786Z,12.29
2019-04-16T22:12:24.725Z,12.14
2019-04-16T22:14:35.628Z,11.98
2019-04-16T22:16:46.478Z,11.87
2019-04-16T22:18:57.422Z,11.84
2019-04-16T22:21:10.981Z,11.85
2019-04-16T22:23:21.010Z,11.92
2019-04-16T22:25:31.889Z,11.93
2019-04-16T22:27:42.746Z,11.89
2019-04-16T22:29:53.713Z,11.88
2019-04-16T22:32:04.562Z,11.95
2019-04-16T22:34:15.423Z,12.02
2019-04-16T22:36:26.371Z,12.11
2019-04-16T22:38:37.637Z,12.16
2019-04-16T22:40:56.598Z,12.16
2019-04-16T22:43:26.115Z,12.07
2019-04-16T22:45:57.217Z,11.91
2019-04-16T22:48:08.191Z,11.78
2019-04-16T22:50:19.080Z,11.65
2019-04-16T22:52:30.010Z,11.53
2019-04-16T22:54:40.984Z,11.44
2019-04-16T22:56:53.842Z,11.37
2019-04-16T22:59:06.586Z,11.29
2019-04-16T23:01:22.198Z,11.17
2019-04-16T23:03:33.039Z,11.18
2019-04-16T23:05:43.913Z,11.22
2019-04-16T23:07:54.763Z,11.22
2019-04-16T23:10:05.760Z,11.21
2019-04-16T23:12:16.583Z,11.16
2019-04-16T23:14:27.424Z,11.15
2019-04-16T23:16:41.864Z,11.15
2019-04-16T23:18:51.029Z,11.18
2019-04-16T23:21:01.894Z,11.18
2019-04-16T23:23:18.028Z,11.19
2019-04-16T23:25:27.448Z,11.21
2019-04-16T23:27:38.383Z,11.22
2019-04-16T23:29:49.206Z,11.20
2019-04-16T23:32:00.084Z,11.23
2019-04-16T23:34:10.914Z,11.27
2019-04-16T23:36:21.770Z,11.30
2019-04-16T23:38:32.602Z,11.34
2019-04-16T23:40:43.947Z,11.42
2019-04-16T23:43:03.381Z,11.45
2019-04-16T23:45:33.207Z,11.53
2019-04-16T23:47:48.749Z,11.55
2019-04-16T23:50:07.321Z,11.51
2019-04-16T23:52:20.078Z,11.50
2019-04-16T23:54:32.838Z,11.49
2019-04-16T23:56:54.689Z,11.46
2019-04-16T23:59:19.435Z,11.42
